TimeMDT,TemperatureF,Dew PointF,Humidity,Sea Level PressureIn,VisibilityMPH,Wind Direction,Wind SpeedMPH,Gust SpeedMPH,PrecipitationIn,Events,Conditions,WindDirDegrees,DateUTC
12:53 AM,14.0,8.1,77,29.86,10.0,NW,9.2,-,N/A,,Overcast,310,2013-04-11 06:53:00
1:53 AM,16.0,9.0,74,29.82,7.0,NW,11.5,21.9,0.00,Snow,Light Snow,320,2013-04-11 07:53:00
2:38 AM,15.8,10.4,79,29.86,3.0,NW,9.2,-,0.00,Snow,Light Snow,320,2013-04-11 08:38:00
2:53 AM,16.0,10.9,81,29.81,4.0,NNW,10.4,-,0.00,Snow,Light Snow,330,2013-04-11 08:53:00
3:53 AM,18.0,12.0,78,29.78,3.0,NNW,11.5,-,0.00,Snow,Light Snow,340,2013-04-11 09:53:00
4:31 AM,17.6,12.2,79,29.85,8.0,NNW,13.8,23.0,0.00,Snow,Light Snow,330,2013-04-11 10:31:00
4:53 AM,18.0,12.0,78,29.78,9.0,NW,11.5,-,0.00,Snow,Light Snow,320,2013-04-11 10:53:00
5:22 AM,17.6,12.2,79,29.85,9.0,NW,8.1,-,0.00,,Overcast,320,2013-04-11 11:22:00
5:53 AM,18.0,12.9,81,29.79,9.0,NNW,9.2,-,0.00,Snow,Light Snow,330,2013-04-11 11:53:00
6:53 AM,17.1,12.9,84,29.80,8.0,North,6.9,-,0.00,,Overcast,360,2013-04-11 12:53:00
7:53 AM,19.0,15.1,85,29.81,4.0,NNW,9.2,-,0.00,Snow,Light Snow,340,2013-04-11 13:53:00
8:00 AM,19.4,15.8,86,29.85,4.0,North,10.4,-,0.00,Snow,Light Snow,350,2013-04-11 14:00:00
8:35 AM,23.0,15.8,74,29.86,1.8,NW,20.7,28.8,0.00,Snow,Light Snow,310,2013-04-11 14:35:00
8:53 AM,21.9,16.0,78,29.82,0.8,WNW,23.0,33.4,0.00,Snow,Light Snow,300,2013-04-11 14:53:00
9:09 AM,23.0,17.6,80,29.86,1.2,WNW,21.9,28.8,0.00,Snow,Light Snow,300,2013-04-11 15:09:00
9:27 AM,24.8,17.6,74,29.86,3.0,WNW,19.6,-,0.00,Snow,Light Snow,300,2013-04-11 15:27:00
9:53 AM,26.1,18.0,71,29.80,8.0,WNW,13.8,19.6,0.00,Snow,Light Snow,300,2013-04-11 15:53:00
10:29 AM,26.6,17.6,69,29.87,10.0,WNW,17.3,24.2,0.00,,Overcast,300,2013-04-11 16:29:00
10:53 AM,28.0,17.1,63,29.84,10.0,North,15.0,23.0,0.00,,Mostly Cloudy,350,2013-04-11 16:53:00
10:59 AM,28.4,17.6,64,29.88,9.0,North,17.3,26.5,0.00,Snow,Light Snow,350,2013-04-11 16:59:00
11:45 AM,30.2,19.4,64,29.88,10.0,NW,13.8,28.8,0.00,,Mostly Cloudy,320,2013-04-11 17:45:00
11:53 AM,30.9,19.0,61,29.81,10.0,NW,16.1,28.8,0.00,,Mostly Cloudy,320,2013-04-11 17:53:00
12:10 PM,30.2,19.4,64,29.88,9.0,WNW,20.7,28.8,0.00,,Overcast,300,2013-04-11 18:10:00
12:43 PM,28.4,21.2,74,29.87,2.0,WNW,20.7,27.6,0.00,Snow,Light Snow,290,2013-04-11 18:43:00
12:53 PM,30.0,21.0,69,29.79,6.0,WNW,18.4,27.6,0.00,Snow,Light Snow,290,2013-04-11 18:53:00
1:05 PM,30.2,21.2,69,29.88,2.5,WNW,19.6,26.5,0.00,Snow,Light Snow,300,2013-04-11 19:05:00
1:13 PM,30.2,21.2,69,29.88,4.0,WNW,21.9,28.8,0.00,Snow,Light Snow,300,2013-04-11 19:13:00
1:34 PM,30.2,23.0,75,29.88,2.5,WNW,13.8,25.3,0.00,Snow,Light Snow,300,2013-04-11 19:34:00
1:41 PM,30.2,21.2,69,29.89,5.0,WNW,17.3,25.3,0.00,Snow,Light Snow,300,2013-04-11 19:41:00
1:53 PM,28.9,21.9,75,29.79,3.0,WNW,16.1,24.2,0.00,Snow,Light Snow,290,2013-04-11 19:53:00
2:04 PM,28.4,21.2,74,29.89,2.5,NW,16.1,24.2,0.00,Snow,Light Snow,310,2013-04-11 20:04:00
2:12 PM,28.4,21.2,74,29.89,1.2,NW,13.8,23.0,0.00,Snow,Light Snow,320,2013-04-11 20:12:00
2:15 PM,28.4,21.2,74,29.89,0.8,NNW,10.4,23.0,0.00,Snow,Light Snow,330,2013-04-11 20:15:00
2:26 PM,30.2,23.0,75,29.89,2.0,NW,13.8,19.6,0.00,Snow,Light Snow,320,2013-04-11 20:26:00
2:34 PM,30.2,21.2,69,29.89,7.0,NW,12.7,21.9,0.00,Snow,Light Snow,310,2013-04-11 20:34:00
2:53 PM,32.0,19.9,61,29.79,8.0,WNW,16.1,24.2,0.00,,Overcast,300,2013-04-11 20:53:00
3:53 PM,33.1,19.0,56,29.75,10.0,WNW,11.5,18.4,0.00,,Overcast,300,2013-04-11 21:53:00
4:53 PM,33.1,18.0,54,29.75,10.0,NW,9.2,-,N/A,,Mostly Cloudy,310,2013-04-11 22:53:00
5:53 PM,32.0,18.0,56,29.78,10.0,WNW,9.2,19.6,N/A,,Overcast,290,2013-04-11 23:53:00
6:53 PM,30.0,18.0,61,29.80,10.0,WNW,12.7,21.9,N/A,,Mostly Cloudy,300,2013-04-12 00:53:00
7:53 PM,27.0,21.9,81,29.83,7.0,NW,10.4,19.6,0.00,Snow,Light Snow,310,2013-04-12 01:53:00
8:04 PM,26.6,21.2,80,29.92,3.0,WNW,4.6,-,0.00,Snow,Light Snow,300,2013-04-12 02:04:00
8:53 PM,27.0,23.0,85,29.81,3.0,SW,4.6,-,0.00,Snow,Light Snow,230,2013-04-12 02:53:00
8:57 PM,26.6,23.0,86,29.93,2.5,SSW,3.5,-,0.00,Snow,Light Snow,210,2013-04-12 02:57:00
9:05 PM,26.6,23.0,86,29.93,3.0,Calm,Calm,-,0.01,Snow,Light Snow,0,2013-04-12 03:05:00
9:15 PM,26.6,23.0,86,29.94,1.8,NNW,3.5,-,0.01,Snow,Light Snow,340,2013-04-12 03:15:00
9:23 PM,26.6,23.0,86,29.94,1.8,West,4.6,-,0.01,Snow,Light Snow,270,2013-04-12 03:23:00
9:25 PM,26.6,23.0,86,29.94,2.0,Calm,Calm,-,0.01,Snow,Light Snow,0,2013-04-12 03:25:00
9:34 PM,26.6,23.0,86,29.95,9.0,Calm,Calm,-,0.01,,Overcast,0,2013-04-12 03:34:00
9:53 PM,26.1,23.0,88,29.83,10.0,Calm,Calm,-,0.01,,Overcast,0,2013-04-12 03:53:00
10:53 PM,25.0,19.9,81,29.81,10.0,ENE,3.5,-,0.00,,Overcast,60,2013-04-12 04:53:00
11:53 PM,25.0,19.9,81,29.80,10.0,Calm,Calm,-,N/A,,Overcast,0,2013-04-12 05:53:00